Yeager (CRW)

 

Airport Diagram
Current Weather/Forecast (VFR Conditions)
METAR KCRW 091354Z 17008KT 130V200 10SM OVC055 16/06 A2984 RMK AO2 SLP101 OCNL BINOVC T01560061
TAF KCRW 091120Z 0912/1012 13004KT P6SM BKN060 FM091500 20011G17KT P6SM BKN100 FM092100 23018G25KT 6SM BR VCTS OVC060CB FM100000 22013G23KT 5SM -RA VCTS BKN030CB FM100300 27010G19KT P6SM SHRA OVC015 FM100500 30007KT 5SM SHRA OVC007

Airport Information

All Charts
General
Chart Name View
AIRPORT DIAGRAM
TAKEOFF MINIMUMS
ALTERNATE MINIMUMS

Approaches
Chart Name Download
ILS OR LOC RWY 05
ILS OR LOC RWY 23
RNAV (RNP) Z RWY 05
RNAV (RNP) Z RWY 23
RNAV (GPS) Y RWY 05
RNAV (GPS) Y RWY 23
VOR-A


Airport Statistics
Departures Arrivals Local
All Collected Stats since June 2016: 471 433 20
2021 Stats: 96 117 2
May Stats: 5 3 0

Inbound Traffic (Arrivals) - 0

No inbound traffic.


Outbound Traffic (Departures) - 0

No outbound traffic.


Local Traffic (Pattern) - 0

No local traffic.